createdAt,value
2018-12-18T00:02:58.106Z,99.90
2018-12-18T00:08:05.209Z,99.90
2018-12-18T00:13:08.800Z,99.90
2018-12-18T00:18:12.338Z,99.90
2018-12-18T00:23:16.123Z,99.90
2018-12-18T00:28:19.664Z,99.90
2018-12-18T00:33:23.143Z,99.90
2018-12-18T00:38:26.961Z,99.90
2018-12-18T00:43:30.520Z,99.90
2018-12-18T00:48:34.021Z,99.90
2018-12-18T00:53:37.407Z,99.90
2018-12-18T00:58:41.160Z,99.90
2018-12-18T01:03:44.626Z,99.90
2018-12-18T01:08:48.319Z,99.90
2018-12-18T01:13:51.934Z,99.90
2018-12-18T01:18:55.619Z,99.90
2018-12-18T01:23:59.169Z,99.90
2018-12-18T01:29:02.643Z,99.90
2018-12-18T01:34:06.138Z,99.90
2018-12-18T01:39:09.618Z,99.90
2018-12-18T01:44:13.160Z,99.90
2018-12-18T01:49:16.707Z,99.90
2018-12-18T01:54:20.435Z,99.90
2018-12-18T01:59:23.860Z,99.90
2018-12-18T02:04:28.338Z,99.90
2018-12-18T02:09:34.259Z,99.90
2018-12-18T02:14:37.901Z,99.90
2018-12-18T02:19:41.716Z,99.90
2018-12-18T02:24:45.326Z,99.90
2018-12-18T02:29:48.766Z,99.90
2018-12-18T02:34:52.280Z,99.90
2018-12-18T02:39:55.787Z,99.90
2018-12-18T02:44:59.242Z,99.90
2018-12-18T02:50:03.121Z,99.90
2018-12-18T02:55:06.783Z,99.90
2018-12-18T03:00:10.413Z,99.90
2018-12-18T03:05:14.291Z,99.90
2018-12-18T03:10:17.708Z,99.90
2018-12-18T03:15:21.447Z,99.90
2018-12-18T03:20:26.009Z,99.90
2018-12-18T03:25:29.640Z,99.90
2018-12-18T03:30:33.125Z,99.90
2018-12-18T03:35:36.709Z,99.90
2018-12-18T03:40:40.258Z,99.90
2018-12-18T03:45:43.775Z,99.90
2018-12-18T03:50:47.277Z,99.90
2018-12-18T03:55:50.650Z,99.90
2018-12-18T04:00:54.152Z,99.90
2018-12-18T04:05:57.575Z,99.90
2018-12-18T04:11:01.298Z,99.90
2018-12-18T04:16:05.027Z,99.90
2018-12-18T04:21:08.492Z,99.90
2018-12-18T04:26:11.906Z,99.90
2018-12-18T04:31:15.301Z,99.90
2018-12-18T04:36:18.844Z,99.90
2018-12-18T04:41:22.289Z,99.90
2018-12-18T04:46:25.812Z,99.90
2018-12-18T04:51:29.458Z,99.90
2018-12-18T04:56:32.947Z,99.90
2018-12-18T05:01:37.579Z,99.90
2018-12-18T05:06:41.011Z,99.90
2018-12-18T05:11:44.529Z,99.90
2018-12-18T05:16:48.251Z,99.90
2018-12-18T05:21:51.685Z,99.90
2018-12-18T05:26:55.170Z,99.90
2018-12-18T05:31:58.606Z,99.90
2018-12-18T05:37:02.256Z,99.90
2018-12-18T05:42:06.231Z,99.90
2018-12-18T05:47:09.686Z,99.90
2018-12-18T05:52:16.665Z,99.90
2018-12-18T05:57:20.304Z,99.90
2018-12-18T06:02:23.806Z,99.90
2018-12-18T06:07:27.277Z,99.90
2018-12-18T06:12:30.821Z,99.90
2018-12-18T06:17:34.442Z,99.90
2018-12-18T06:22:38.219Z,99.90
2018-12-18T06:27:41.907Z,99.90
2018-12-18T06:32:45.680Z,99.90
2018-12-18T06:37:49.436Z,99.90
2018-12-18T06:42:53.371Z,99.90
2018-12-18T06:47:57.277Z,99.90
2018-12-18T06:53:01.074Z,99.90
2018-12-18T06:58:04.906Z,99.90
2018-12-18T07:03:08.363Z,99.90
2018-12-18T07:08:11.933Z,99.90
2018-12-18T07:13:15.508Z,99.90
2018-12-18T07:18:19.022Z,99.90
2018-12-18T07:23:22.614Z,99.90
2018-12-18T07:28:26.083Z,99.90
2018-12-18T07:33:29.611Z,99.90
2018-12-18T07:38:33.028Z,99.90
2018-12-18T07:43:36.603Z,99.90
2018-12-18T07:48:40.096Z,99.90
2018-12-18T07:53:43.836Z,99.90
2018-12-18T07:58:47.696Z,99.90
2018-12-18T08:03:51.563Z,99.90
2018-12-18T08:08:55.068Z,99.90
2018-12-18T08:13:58.762Z,99.90
2018-12-18T08:19:02.195Z,99.90
2018-12-18T08:24:05.756Z,99.90
2018-12-18T08:29:09.482Z,99.90
2018-12-18T08:34:13.020Z,99.90
2018-12-18T08:39:16.776Z,99.90
2018-12-18T08:44:20.398Z,99.90
2018-12-18T08:49:24.122Z,99.90
2018-12-18T08:54:28.145Z,99.90
2018-12-18T08:59:31.887Z,99.90
2018-12-18T09:04:35.388Z,99.90
2018-12-18T09:09:39.212Z,99.90
2018-12-18T09:20:01.215Z,99.90
2018-12-18T09:25:05.947Z,99.90
2018-12-18T09:30:11.068Z,99.90
2018-12-18T09:35:14.482Z,99.90
2018-12-18T09:40:21.265Z,99.90
2018-12-18T09:45:24.739Z,99.90
2018-12-18T09:50:28.290Z,99.90
2018-12-18T09:55:31.775Z,99.90
2018-12-18T10:00:35.333Z,99.90
2018-12-18T10:05:38.867Z,99.90
2018-12-18T10:10:42.342Z,99.90
2018-12-18T10:15:53.055Z,99.90
2018-12-18T10:20:56.645Z,99.90
2018-12-18T10:26:00.313Z,99.90
2018-12-18T10:31:03.887Z,99.90
2018-12-18T10:36:07.377Z,99.90
2018-12-18T10:41:11.025Z,99.90
2018-12-18T10:46:14.711Z,99.90
2018-12-18T10:51:18.366Z,99.90
2018-12-18T10:56:21.919Z,99.90
2018-12-18T11:01:31.269Z,99.90
2018-12-18T11:06:34.726Z,99.90
2018-12-18T11:11:38.362Z,99.90
2018-12-18T11:16:41.925Z,99.90
2018-12-18T11:21:46.041Z,99.90
2018-12-18T11:26:49.711Z,99.90
2018-12-18T11:31:53.384Z,99.90
2018-12-18T11:36:56.988Z,99.90
2018-12-18T11:42:00.714Z,99.90
2018-12-18T11:47:04.395Z,99.90
2018-12-18T11:52:09.042Z,99.90
2018-12-18T11:57:12.822Z,99.90
2018-12-18T12:02:16.482Z,99.90
2018-12-18T12:07:21.011Z,99.90
2018-12-18T12:12:24.477Z,99.90
2018-12-18T12:17:28.314Z,99.90
2018-12-18T12:22:31.803Z,99.90
2018-12-18T12:27:40.973Z,99.90
2018-12-18T12:32:44.384Z,99.90
2018-12-18T12:37:47.940Z,99.90
2018-12-18T12:42:51.395Z,99.90
2018-12-18T12:47:58.859Z,99.90
2018-12-18T12:53:02.599Z,99.90
2018-12-18T12:58:06.124Z,99.90
2018-12-18T13:03:09.607Z,99.80
2018-12-18T13:08:13.054Z,99.00
2018-12-18T13:13:16.545Z,98.90
2018-12-18T13:18:20.163Z,98.60
2018-12-18T13:23:23.778Z,97.70
2018-12-18T13:28:27.364Z,97.90
2018-12-18T13:33:30.982Z,97.20
2018-12-18T13:38:34.402Z,96.10
2018-12-18T13:43:37.898Z,96.80
2018-12-18T13:48:41.351Z,96.00
2018-12-18T13:53:44.851Z,96.20
2018-12-18T13:58:48.411Z,96.40
2018-12-18T14:03:52.031Z,95.90
2018-12-18T14:08:55.485Z,95.90
2018-12-18T14:13:59.142Z,96.00
2018-12-18T14:19:02.555Z,95.30
2018-12-18T14:24:06.064Z,95.10
2018-12-18T14:29:10.372Z,95.30
2018-12-18T14:34:14.044Z,94.70
2018-12-18T14:39:17.974Z,94.40
2018-12-18T14:44:21.535Z,94.90
2018-12-18T14:49:24.918Z,95.40
2018-12-18T14:59:42.252Z,95.10
2018-12-18T15:04:46.000Z,95.40
2018-12-18T15:09:53.141Z,95.00
2018-12-18T15:14:57.682Z,94.60
2018-12-18T15:20:01.260Z,95.30
2018-12-18T15:25:05.973Z,95.00
2018-12-18T15:30:10.415Z,94.50
2018-12-18T15:35:14.225Z,94.80
2018-12-18T15:40:17.641Z,94.30
2018-12-18T15:45:21.196Z,94.10
2018-12-18T15:50:25.030Z,94.00
2018-12-18T15:55:28.441Z,94.80
2018-12-18T16:00:31.807Z,94.90
2018-12-18T16:05:35.311Z,95.00
2018-12-18T16:10:38.874Z,95.80
2018-12-18T16:15:42.411Z,96.10
2018-12-18T16:20:46.352Z,95.60
2018-12-18T16:25:49.861Z,97.20
2018-12-18T16:30:53.517Z,97.90
2018-12-18T16:35:57.158Z,98.50
2018-12-18T16:41:00.620Z,98.80
2018-12-18T16:46:04.549Z,99.00
2018-12-18T16:51:08.003Z,99.00
2018-12-18T16:56:11.601Z,99.10
2018-12-18T17:01:15.087Z,99.10
2018-12-18T17:06:18.642Z,99.20
2018-12-18T17:11:22.367Z,99.00
2018-12-18T17:16:25.829Z,99.00
2018-12-18T17:21:29.234Z,99.30
2018-12-18T17:26:32.705Z,98.90
2018-12-18T17:31:36.233Z,99.10
2018-12-18T17:36:39.691Z,99.30
2018-12-18T17:41:43.136Z,99.50
2018-12-18T17:46:46.504Z,99.60
2018-12-18T17:51:49.900Z,99.60
2018-12-18T17:56:53.303Z,99.50
2018-12-18T18:01:56.872Z,99.60
2018-12-18T18:07:00.329Z,99.60
2018-12-18T18:12:03.828Z,99.70
2018-12-18T18:17:07.204Z,99.90
2018-12-18T18:22:10.824Z,99.90
2018-12-18T18:27:14.312Z,99.90
2018-12-18T18:32:17.834Z,99.90
2018-12-18T18:37:21.396Z,99.90
2018-12-18T18:42:24.883Z,99.90
2018-12-18T18:47:28.443Z,99.90
2018-12-18T18:52:31.903Z,99.90
2018-12-18T18:57:35.337Z,99.90
2018-12-18T19:02:38.751Z,99.90
2018-12-18T19:07:42.276Z,99.90
2018-12-18T19:12:46.284Z,99.90
2018-12-18T19:17:49.983Z,99.90
2018-12-18T19:22:53.471Z,99.90
2018-12-18T19:27:57.155Z,99.90
2018-12-18T19:33:00.609Z,99.90
2018-12-18T19:38:04.395Z,99.90
2018-12-18T19:43:08.314Z,99.90
2018-12-18T19:48:13.019Z,99.90
2018-12-18T19:53:16.500Z,99.90
2018-12-18T19:58:20.002Z,99.90
2018-12-18T20:03:23.491Z,99.90
2018-12-18T20:08:27.093Z,99.90
2018-12-18T20:13:31.661Z,99.90
2018-12-18T20:18:35.202Z,99.90
2018-12-18T20:23:38.700Z,99.90
2018-12-18T20:28:43.468Z,99.90
2018-12-18T20:33:47.357Z,99.90
2018-12-18T20:38:51.007Z,99.90
2018-12-18T20:43:54.592Z,99.90
2018-12-18T20:48:58.218Z,99.90
2018-12-18T20:54:01.690Z,99.90
2018-12-18T20:59:05.469Z,99.90
2018-12-18T21:04:08.990Z,99.90
2018-12-18T21:09:12.479Z,99.90
2018-12-18T21:14:15.925Z,99.90
2018-12-18T21:19:19.387Z,99.90
2018-12-18T21:29:39.444Z,99.90
2018-12-18T21:34:44.052Z,99.90
2018-12-18T21:39:47.853Z,99.90
2018-12-18T21:44:51.807Z,99.90
2018-12-18T21:49:55.282Z,99.90
2018-12-18T21:55:00.085Z,99.90
2018-12-18T22:00:05.713Z,99.90
2018-12-18T22:05:09.306Z,99.90
2018-12-18T22:10:13.013Z,99.90
2018-12-18T22:15:16.562Z,99.90
2018-12-18T22:20:20.325Z,99.90
2018-12-18T22:25:23.790Z,99.90
2018-12-18T22:30:27.767Z,99.90
2018-12-18T22:35:31.207Z,99.90
2018-12-18T22:40:34.962Z,99.90
2018-12-18T22:45:38.372Z,99.90
2018-12-18T22:50:41.856Z,99.90
2018-12-18T22:55:45.444Z,99.90
2018-12-18T23:00:55.535Z,99.90
2018-12-18T23:05:59.287Z,99.90
2018-12-18T23:11:03.011Z,99.90
2018-12-18T23:16:06.516Z,99.90
2018-12-18T23:21:09.976Z,99.90
2018-12-18T23:26:13.595Z,99.90
2018-12-18T23:31:17.115Z,99.90
2018-12-18T23:36:20.698Z,99.90
2018-12-18T23:41:25.402Z,99.90
2018-12-18T23:46:29.096Z,99.90
2018-12-18T23:51:32.665Z,99.90
2018-12-18T23:56:36.117Z,99.90
